sensor_id;sensor_type;location;lat;lon;timestamp;P1;durP1;ratioP1;P2;durP2;ratioP2
3769;SDS011;1900;48.890;9.190;2023-02-20T00:00:42;9.80;;;3.90;;
3769;SDS011;1900;48.890;9.190;2023-02-20T00:03:08;12.53;;;3.63;;
3769;SDS011;1900;48.890;9.190;2023-02-20T00:05:34;9.67;;;3.27;;
3769;SDS011;1900;48.890;9.190;2023-02-20T00:08:00;7.30;;;3.80;;
3769;SDS011;1900;48.890;9.190;2023-02-20T00:10:26;6.50;;;3.90;;
3769;SDS011;1900;48.890;9.190;2023-02-20T00:12:52;7.77;;;3.27;;
3769;SDS011;1900;48.890;9.190;2023-02-20T00:15:18;5.33;;;3.10;;
3769;SDS011;1900;48.890;9.190;2023-02-20T00:17:45;7.80;;;3.43;;
3769;SDS011;1900;48.890;9.190;2023-02-20T00:20:14;8.30;;;3.83;;
3769;SDS011;1900;48.890;9.190;2023-02-20T00:22:43;7.50;;;3.67;;
3769;SDS011;1900;48.890;9.190;2023-02-20T00:25:08;6.43;;;4.13;;
3769;SDS011;1900;48.890;9.190;2023-02-20T00:27:34;5.80;;;3.40;;
3769;SDS011;1900;48.890;9.190;2023-02-20T00:30:00;13.07;;;3.60;;
3769;SDS011;1900;48.890;9.190;2023-02-20T00:32:26;11.77;;;3.70;;
3769;SDS011;1900;48.890;9.190;2023-02-20T00:34:51;6.13;;;3.63;;
3769;SDS011;1900;48.890;9.190;2023-02-20T00:37:17;12.93;;;4.47;;
3769;SDS011;1900;48.890;9.190;2023-02-20T00:39:43;5.93;;;3.63;;
3769;SDS011;1900;48.890;9.190;2023-02-20T00:42:09;8.20;;;3.70;;
3769;SDS011;1900;48.890;9.190;2023-02-20T00:44:36;8.23;;;3.70;;
3769;SDS011;1900;48.890;9.190;2023-02-20T00:47:01;10.67;;;5.13;;
3769;SDS011;1900;48.890;9.190;2023-02-20T00:49:27;7.23;;;4.20;;
3769;SDS011;1900;48.890;9.190;2023-02-20T00:52:06;7.90;;;3.50;;
3769;SDS011;1900;48.890;9.190;2023-02-20T00:54:33;5.40;;;3.53;;
3769;SDS011;1900;48.890;9.190;2023-02-20T00:56:59;9.60;;;3.50;;
3769;SDS011;1900;48.890;9.190;2023-02-20T00:59:25;11.07;;;3.80;;
3769;SDS011;1900;48.890;9.190;2023-02-20T01:01:50;8.93;;;3.57;;
3769;SDS011;1900;48.890;9.190;2023-02-20T01:04:16;6.50;;;3.43;;
3769;SDS011;1900;48.890;9.190;2023-02-20T01:06:43;5.40;;;3.37;;
3769;SDS011;1900;48.890;9.190;2023-02-20T01:09:10;7.63;;;4.00;;
3769;SDS011;1900;48.890;9.190;2023-02-20T01:11:36;4.70;;;3.33;;
3769;SDS011;1900;48.890;9.190;2023-02-20T01:14:02;8.37;;;3.73;;
3769;SDS011;1900;48.890;9.190;2023-02-20T01:16:28;7.73;;;4.50;;
3769;SDS011;1900;48.890;9.190;2023-02-20T01:18:54;9.00;;;4.43;;
3769;SDS011;1900;48.890;9.190;2023-02-20T01:21:20;6.50;;;4.63;;
3769;SDS011;1900;48.890;9.190;2023-02-20T01:23:47;9.23;;;4.63;;
3769;SDS011;1900;48.890;9.190;2023-02-20T01:26:13;7.83;;;3.67;;
3769;SDS011;1900;48.890;9.190;2023-02-20T01:28:38;4.30;;;3.43;;
3769;SDS011;1900;48.890;9.190;2023-02-20T01:31:07;5.47;;;3.50;;
3769;SDS011;1900;48.890;9.190;2023-02-20T01:33:32;6.10;;;3.93;;
3769;SDS011;1900;48.890;9.190;2023-02-20T01:35:58;13.50;;;5.00;;
3769;SDS011;1900;48.890;9.190;2023-02-20T01:38:24;13.30;;;5.33;;
3769;SDS011;1900;48.890;9.190;2023-02-20T01:40:49;9.67;;;4.60;;
3769;SDS011;1900;48.890;9.190;2023-02-20T01:43:15;8.83;;;4.17;;
3769;SDS011;1900;48.890;9.190;2023-02-20T01:45:41;8.40;;;3.77;;
3769;SDS011;1900;48.890;9.190;2023-02-20T01:48:26;6.93;;;3.50;;
3769;SDS011;1900;48.890;9.190;2023-02-20T01:50:53;8.03;;;3.80;;
3769;SDS011;1900;48.890;9.190;2023-02-20T01:53:22;6.80;;;3.80;;
3769;SDS011;1900;48.890;9.190;2023-02-20T01:55:53;10.80;;;3.77;;
3769;SDS011;1900;48.890;9.190;2023-02-20T01:58:44;5.37;;;3.13;;
3769;SDS011;1900;48.890;9.190;2023-02-20T02:01:13;7.03;;;3.50;;
3769;SDS011;1900;48.890;9.190;2023-02-20T02:03:40;8.50;;;4.30;;
3769;SDS011;1900;48.890;9.190;2023-02-20T02:06:10;8.33;;;3.87;;
3769;SDS011;1900;48.890;9.190;2023-02-20T02:08:38;10.70;;;4.20;;
3769;SDS011;1900;48.890;9.190;2023-02-20T02:11:15;7.60;;;3.93;;
3769;SDS011;1900;48.890;9.190;2023-02-20T02:13:43;5.43;;;3.70;;
3769;SDS011;1900;48.890;9.190;2023-02-20T02:33:30;5.20;;;4.30;;
3769;SDS011;1900;48.890;9.190;2023-02-20T02:52:17;13.47;;;4.10;;
3769;SDS011;1900;48.890;9.190;2023-02-20T02:55:05;5.60;;;3.87;;
3769;SDS011;1900;48.890;9.190;2023-02-20T02:57:34;8.10;;;4.20;;
3769;SDS011;1900;48.890;9.190;2023-02-20T03:00:02;11.20;;;4.10;;
3769;SDS011;1900;48.890;9.190;2023-02-20T03:03:28;7.43;;;4.20;;
3769;SDS011;1900;48.890;9.190;2023-02-20T03:05:44;10.03;;;4.00;;
3769;SDS011;1900;48.890;9.190;2023-02-20T03:08:22;9.23;;;5.07;;
3769;SDS011;1900;48.890;9.190;2023-02-20T03:11:19;6.43;;;3.70;;
3769;SDS011;1900;48.890;9.190;2023-02-20T03:13:48;8.87;;;3.57;;
3769;SDS011;1900;48.890;9.190;2023-02-20T03:19:30;5.30;;;4.23;;
3769;SDS011;1900;48.890;9.190;2023-02-20T03:22:16;10.43;;;4.50;;
3769;SDS011;1900;48.890;9.190;2023-02-20T03:24:49;8.83;;;3.73;;
3769;SDS011;1900;48.890;9.190;2023-02-20T03:27:33;7.60;;;4.47;;
3769;SDS011;1900;48.890;9.190;2023-02-20T03:30:05;8.27;;;4.70;;
3769;SDS011;1900;48.890;9.190;2023-02-20T03:32:36;6.83;;;4.83;;
3769;SDS011;1900;48.890;9.190;2023-02-20T03:35:22;14.60;;;4.13;;
3769;SDS011;1900;48.890;9.190;2023-02-20T03:38:09;7.80;;;4.10;;
3769;SDS011;1900;48.890;9.190;2023-02-20T03:40:54;9.30;;;5.57;;
3769;SDS011;1900;48.890;9.190;2023-02-20T03:43:41;6.60;;;3.73;;
3769;SDS011;1900;48.890;9.190;2023-02-20T03:46:15;12.60;;;4.33;;
3769;SDS011;1900;48.890;9.190;2023-02-20T03:51:25;9.43;;;4.27;;
3769;SDS011;1900;48.890;9.190;2023-02-20T03:53:57;6.30;;;4.20;;
3769;SDS011;1900;48.890;9.190;2023-02-20T03:56:25;8.80;;;4.77;;
3769;SDS011;1900;48.890;9.190;2023-02-20T03:58:58;7.57;;;3.70;;
3769;SDS011;1900;48.890;9.190;2023-02-20T04:01:46;4.33;;;3.57;;
3769;SDS011;1900;48.890;9.190;2023-02-20T04:04:18;5.73;;;3.23;;
3769;SDS011;1900;48.890;9.190;2023-02-20T04:06:47;4.57;;;3.60;;
3769;SDS011;1900;48.890;9.190;2023-02-20T04:09:18;9.10;;;3.83;;
3769;SDS011;1900;48.890;9.190;2023-02-20T04:11:49;8.70;;;3.40;;
3769;SDS011;1900;48.890;9.190;2023-02-20T04:14:20;4.30;;;3.20;;
3769;SDS011;1900;48.890;9.190;2023-02-20T04:16:50;6.53;;;3.27;;
3769;SDS011;1900;48.890;9.190;2023-02-20T04:19:21;13.80;;;3.83;;
3769;SDS011;1900;48.890;9.190;2023-02-20T04:21:57;9.17;;;4.40;;
3769;SDS011;1900;48.890;9.190;2023-02-20T04:27:08;12.00;;;3.73;;
3769;SDS011;1900;48.890;9.190;2023-02-20T04:29:40;5.83;;;2.97;;
3769;SDS011;1900;48.890;9.190;2023-02-20T04:32:07;7.30;;;3.30;;
3769;SDS011;1900;48.890;9.190;2023-02-20T04:34:34;7.20;;;3.20;;
3769;SDS011;1900;48.890;9.190;2023-02-20T04:37:07;7.27;;;3.73;;
3769;SDS011;1900;48.890;9.190;2023-02-20T04:39:45;4.60;;;2.87;;
3769;SDS011;1900;48.890;9.190;2023-02-20T04:42:12;4.30;;;3.50;;
3769;SDS011;1900;48.890;9.190;2023-02-20T04:44:39;3.80;;;3.40;;
3769;SDS011;1900;48.890;9.190;2023-02-20T04:47:07;10.20;;;3.60;;
3769;SDS011;1900;48.890;9.190;2023-02-20T04:49:36;4.73;;;3.60;;
3769;SDS011;1900;48.890;9.190;2023-02-20T04:52:04;7.47;;;3.30;;
3769;SDS011;1900;48.890;9.190;2023-02-20T04:54:31;3.40;;;2.93;;
3769;SDS011;1900;48.890;9.190;2023-02-20T04:56:57;5.30;;;4.07;;
3769;SDS011;1900;48.890;9.190;2023-02-20T04:59:23;4.50;;;3.40;;
3769;SDS011;1900;48.890;9.190;2023-02-20T05:01:49;12.30;;;3.63;;
3769;SDS011;1900;48.890;9.190;2023-02-20T05:04:18;7.90;;;3.60;;
3769;SDS011;1900;48.890;9.190;2023-02-20T05:06:45;13.00;;;3.30;;
3769;SDS011;1900;48.890;9.190;2023-02-20T05:09:16;5.83;;;3.47;;
3769;SDS011;1900;48.890;9.190;2023-02-20T05:11:42;7.70;;;3.80;;
3769;SDS011;1900;48.890;9.190;2023-02-20T05:14:08;9.13;;;3.80;;
3769;SDS011;1900;48.890;9.190;2023-02-20T05:16:36;7.30;;;3.13;;
3769;SDS011;1900;48.890;9.190;2023-02-20T05:19:02;6.93;;;3.77;;
3769;SDS011;1900;48.890;9.190;2023-02-20T05:21:28;5.00;;;4.03;;
3769;SDS011;1900;48.890;9.190;2023-02-20T05:24:12;10.87;;;3.73;;
3769;SDS011;1900;48.890;9.190;2023-02-20T05:26:38;10.17;;;3.80;;
3769;SDS011;1900;48.890;9.190;2023-02-20T05:29:04;5.70;;;3.37;;
3769;SDS011;1900;48.890;9.190;2023-02-20T05:31:31;10.80;;;3.90;;
3769;SDS011;1900;48.890;9.190;2023-02-20T05:33:56;7.23;;;3.33;;
3769;SDS011;1900;48.890;9.190;2023-02-20T05:36:22;9.23;;;3.70;;
3769;SDS011;1900;48.890;9.190;2023-02-20T05:38:47;9.23;;;3.67;;
3769;SDS011;1900;48.890;9.190;2023-02-20T05:41:14;7.43;;;4.27;;
3769;SDS011;1900;48.890;9.190;2023-02-20T05:43:40;4.90;;;3.37;;
3769;SDS011;1900;48.890;9.190;2023-02-20T05:46:06;5.03;;;3.60;;
3769;SDS011;1900;48.890;9.190;2023-02-20T05:48:31;7.80;;;3.73;;
3769;SDS011;1900;48.890;9.190;2023-02-20T05:50:57;9.50;;;3.60;;
3769;SDS011;1900;48.890;9.190;2023-02-20T05:53:23;7.57;;;4.33;;
3769;SDS011;1900;48.890;9.190;2023-02-20T05:55:51;7.90;;;3.50;;
3769;SDS011;1900;48.890;9.190;2023-02-20T05:58:16;9.50;;;4.00;;
3769;SDS011;1900;48.890;9.190;2023-02-20T06:00:42;8.77;;;4.10;;
3769;SDS011;1900;48.890;9.190;2023-02-20T06:03:08;8.50;;;4.27;;
3769;SDS011;1900;48.890;9.190;2023-02-20T06:05:36;6.80;;;3.50;;
3769;SDS011;1900;48.890;9.190;2023-02-20T06:08:02;6.00;;;3.50;;
3769;SDS011;1900;48.890;9.190;2023-02-20T06:10:28;7.00;;;4.13;;
3769;SDS011;1900;48.890;9.190;2023-02-20T06:12:54;7.77;;;3.67;;
3769;SDS011;1900;48.890;9.190;2023-02-20T06:15:20;10.70;;;4.17;;
3769;SDS011;1900;48.890;9.190;2023-02-20T06:17:45;7.63;;;3.87;;
3769;SDS011;1900;48.890;9.190;2023-02-20T06:20:11;8.10;;;3.83;;
3769;SDS011;1900;48.890;9.190;2023-02-20T06:22:37;10.00;;;3.67;;
3769;SDS011;1900;48.890;9.190;2023-02-20T06:25:03;10.27;;;3.50;;
3769;SDS011;1900;48.890;9.190;2023-02-20T06:27:29;6.30;;;3.47;;
3769;SDS011;1900;48.890;9.190;2023-02-20T06:29:54;7.63;;;3.53;;
3769;SDS011;1900;48.890;9.190;2023-02-20T06:32:20;8.07;;;4.40;;
3769;SDS011;1900;48.890;9.190;2023-02-20T06:34:45;6.10;;;3.40;;
3769;SDS011;1900;48.890;9.190;2023-02-20T06:37:11;7.80;;;3.90;;
3769;SDS011;1900;48.890;9.190;2023-02-20T06:39:37;11.17;;;4.17;;
3769;SDS011;1900;48.890;9.190;2023-02-20T06:42:04;6.23;;;4.13;;
3769;SDS011;1900;48.890;9.190;2023-02-20T06:44:30;8.57;;;4.47;;
3769;SDS011;1900;48.890;9.190;2023-02-20T06:46:57;10.60;;;4.70;;
3769;SDS011;1900;48.890;9.190;2023-02-20T06:49:23;11.07;;;4.33;;
3769;SDS011;1900;48.890;9.190;2023-02-20T06:51:52;8.83;;;4.00;;
3769;SDS011;1900;48.890;9.190;2023-02-20T06:54:18;8.47;;;4.13;;
3769;SDS011;1900;48.890;9.190;2023-02-20T06:56:46;8.27;;;3.53;;
3769;SDS011;1900;48.890;9.190;2023-02-20T06:59:12;7.97;;;4.03;;
3769;SDS011;1900;48.890;9.190;2023-02-20T07:01:40;9.33;;;4.20;;
3769;SDS011;1900;48.890;9.190;2023-02-20T07:04:14;10.00;;;4.43;;
3769;SDS011;1900;48.890;9.190;2023-02-20T07:06:42;10.63;;;4.20;;
3769;SDS011;1900;48.890;9.190;2023-02-20T07:09:08;10.50;;;4.23;;
3769;SDS011;1900;48.890;9.190;2023-02-20T07:11:33;12.00;;;4.83;;
3769;SDS011;1900;48.890;9.190;2023-02-20T07:13:59;8.63;;;4.90;;
3769;SDS011;1900;48.890;9.190;2023-02-20T07:16:25;9.50;;;5.20;;
3769;SDS011;1900;48.890;9.190;2023-02-20T07:18:50;10.20;;;4.50;;
3769;SDS011;1900;48.890;9.190;2023-02-20T07:21:16;12.00;;;5.37;;
3769;SDS011;1900;48.890;9.190;2023-02-20T07:23:45;8.43;;;4.43;;
3769;SDS011;1900;48.890;9.190;2023-02-20T07:26:20;13.53;;;5.10;;
3769;SDS011;1900;48.890;9.190;2023-02-20T07:28:48;8.97;;;5.07;;
3769;SDS011;1900;48.890;9.190;2023-02-20T07:31:14;7.57;;;4.17;;
3769;SDS011;1900;48.890;9.190;2023-02-20T07:33:39;5.87;;;3.90;;
3769;SDS011;1900;48.890;9.190;2023-02-20T07:36:08;8.77;;;4.37;;
3769;SDS011;1900;48.890;9.190;2023-02-20T07:38:37;10.57;;;4.20;;
3769;SDS011;1900;48.890;9.190;2023-02-20T07:41:04;8.33;;;4.07;;
3769;SDS011;1900;48.890;9.190;2023-02-20T07:43:29;11.30;;;5.00;;
3769;SDS011;1900;48.890;9.190;2023-02-20T07:45:55;10.13;;;4.60;;
3769;SDS011;1900;48.890;9.190;2023-02-20T07:48:21;13.77;;;4.70;;
3769;SDS011;1900;48.890;9.190;2023-02-20T07:50:47;10.10;;;4.50;;
3769;SDS011;1900;48.890;9.190;2023-02-20T07:53:13;10.57;;;4.93;;
3769;SDS011;1900;48.890;9.190;2023-02-20T07:55:40;11.10;;;4.20;;
3769;SDS011;1900;48.890;9.190;2023-02-20T07:58:06;11.20;;;4.33;;
3769;SDS011;1900;48.890;9.190;2023-02-20T08:00:32;9.70;;;5.40;;
3769;SDS011;1900;48.890;9.190;2023-02-20T08:02:57;5.80;;;3.70;;
3769;SDS011;1900;48.890;9.190;2023-02-20T08:05:24;10.13;;;3.97;;
3769;SDS011;1900;48.890;9.190;2023-02-20T08:07:50;8.93;;;4.13;;
3769;SDS011;1900;48.890;9.190;2023-02-20T08:10:18;11.70;;;4.00;;
3769;SDS011;1900;48.890;9.190;2023-02-20T08:12:48;8.90;;;5.03;;
3769;SDS011;1900;48.890;9.190;2023-02-20T08:15:16;17.27;;;4.97;;
3769;SDS011;1900;48.890;9.190;2023-02-20T08:17:43;4.40;;;3.80;;
3769;SDS011;1900;48.890;9.190;2023-02-20T08:20:09;7.80;;;3.80;;
3769;SDS011;1900;48.890;9.190;2023-02-20T08:22:36;9.23;;;4.20;;
3769;SDS011;1900;48.890;9.190;2023-02-20T08:25:02;12.10;;;5.17;;
3769;SDS011;1900;48.890;9.190;2023-02-20T08:27:29;9.70;;;4.30;;
3769;SDS011;1900;48.890;9.190;2023-02-20T08:29:55;6.50;;;3.30;;
3769;SDS011;1900;48.890;9.190;2023-02-20T08:32:21;6.50;;;4.30;;
3769;SDS011;1900;48.890;9.190;2023-02-20T08:34:47;5.50;;;3.73;;
3769;SDS011;1900;48.890;9.190;2023-02-20T08:37:13;6.07;;;3.83;;
3769;SDS011;1900;48.890;9.190;2023-02-20T08:39:39;6.73;;;3.63;;
3769;SDS011;1900;48.890;9.190;2023-02-20T08:42:04;6.80;;;3.60;;
3769;SDS011;1900;48.890;9.190;2023-02-20T08:44:31;9.63;;;3.60;;
3769;SDS011;1900;48.890;9.190;2023-02-20T08:46:56;12.13;;;3.90;;
3769;SDS011;1900;48.890;9.190;2023-02-20T08:49:22;7.27;;;3.40;;
3769;SDS011;1900;48.890;9.190;2023-02-20T08:51:51;9.97;;;3.90;;
3769;SDS011;1900;48.890;9.190;2023-02-20T08:54:18;5.20;;;3.40;;
3769;SDS011;1900;48.890;9.190;2023-02-20T08:56:43;9.73;;;4.13;;
3769;SDS011;1900;48.890;9.190;2023-02-20T08:59:09;8.00;;;3.80;;
3769;SDS011;1900;48.890;9.190;2023-02-20T09:01:35;6.80;;;3.63;;
3769;SDS011;1900;48.890;9.190;2023-02-20T09:04:01;10.90;;;3.73;;
3769;SDS011;1900;48.890;9.190;2023-02-20T09:06:27;7.87;;;4.57;;
3769;SDS011;1900;48.890;9.190;2023-02-20T09:08:53;10.40;;;4.37;;
3769;SDS011;1900;48.890;9.190;2023-02-20T09:11:20;10.03;;;4.30;;
3769;SDS011;1900;48.890;9.190;2023-02-20T09:13:46;7.17;;;3.97;;
3769;SDS011;1900;48.890;9.190;2023-02-20T09:16:14;10.23;;;4.20;;
3769;SDS011;1900;48.890;9.190;2023-02-20T09:18:43;6.33;;;3.10;;
3769;SDS011;1900;48.890;9.190;2023-02-20T09:21:13;6.50;;;3.30;;
3769;SDS011;1900;48.890;9.190;2023-02-20T09:23:40;8.93;;;3.57;;
3769;SDS011;1900;48.890;9.190;2023-02-20T09:26:05;7.30;;;3.87;;
3769;SDS011;1900;48.890;9.190;2023-02-20T09:28:31;11.00;;;3.73;;
3769;SDS011;1900;48.890;9.190;2023-02-20T09:30:57;6.03;;;2.70;;
3769;SDS011;1900;48.890;9.190;2023-02-20T09:33:24;5.37;;;3.17;;
3769;SDS011;1900;48.890;9.190;2023-02-20T09:35:51;3.57;;;2.33;;
3769;SDS011;1900;48.890;9.190;2023-02-20T09:38:19;3.33;;;2.40;;
3769;SDS011;1900;48.890;9.190;2023-02-20T09:40:48;14.13;;;3.10;;
3769;SDS011;1900;48.890;9.190;2023-02-20T09:46:03;5.23;;;3.50;;
3769;SDS011;1900;48.890;9.190;2023-02-20T09:49:11;7.20;;;3.03;;
3769;SDS011;1900;48.890;9.190;2023-02-20T09:51:36;10.77;;;3.97;;
3769;SDS011;1900;48.890;9.190;2023-02-20T09:54:09;10.70;;;3.27;;
3769;SDS011;1900;48.890;9.190;2023-02-20T09:56:49;8.10;;;3.20;;
3769;SDS011;1900;48.890;9.190;2023-02-20T09:59:21;7.90;;;2.97;;
3769;SDS011;1900;48.890;9.190;2023-02-20T10:01:53;12.10;;;2.90;;
3769;SDS011;1900;48.890;9.190;2023-02-20T10:04:30;8.77;;;3.13;;
3769;SDS011;1900;48.890;9.190;2023-02-20T10:07:07;6.60;;;3.97;;
3769;SDS011;1900;48.890;9.190;2023-02-20T10:09:49;7.17;;;3.20;;
3769;SDS011;1900;48.890;9.190;2023-02-20T10:17:18;4.87;;;3.10;;
3769;SDS011;1900;48.890;9.190;2023-02-20T10:23:13;6.03;;;3.23;;
3769;SDS011;1900;48.890;9.190;2023-02-20T10:25:53;10.63;;;3.47;;
3769;SDS011;1900;48.890;9.190;2023-02-20T10:28:24;6.30;;;3.03;;
3769;SDS011;1900;48.890;9.190;2023-02-20T10:38:26;6.27;;;2.70;;
3769;SDS011;1900;48.890;9.190;2023-02-20T10:41:31;7.23;;;3.50;;
3769;SDS011;1900;48.890;9.190;2023-02-20T10:44:00;8.23;;;4.40;;
3769;SDS011;1900;48.890;9.190;2023-02-20T10:49:04;3.87;;;2.30;;
3769;SDS011;1900;48.890;9.190;2023-02-20T10:51:37;5.10;;;2.80;;
3769;SDS011;1900;48.890;9.190;2023-02-20T10:54:13;9.23;;;2.80;;
3769;SDS011;1900;48.890;9.190;2023-02-20T10:57:29;5.60;;;2.73;;
3769;SDS011;1900;48.890;9.190;2023-02-20T11:00:08;8.23;;;3.80;;
3769;SDS011;1900;48.890;9.190;2023-02-20T11:02:56;5.00;;;2.87;;
3769;SDS011;1900;48.890;9.190;2023-02-20T11:05:29;7.67;;;2.90;;
3769;SDS011;1900;48.890;9.190;2023-02-20T11:07:58;7.30;;;2.80;;
3769;SDS011;1900;48.890;9.190;2023-02-20T11:10:24;4.80;;;2.30;;
3769;SDS011;1900;48.890;9.190;2023-02-20T11:12:50;5.90;;;2.93;;
3769;SDS011;1900;48.890;9.190;2023-02-20T11:15:21;5.03;;;2.70;;
3769;SDS011;1900;48.890;9.190;2023-02-20T11:17:50;9.20;;;2.77;;
3769;SDS011;1900;48.890;9.190;2023-02-20T11:23:02;12.10;;;3.00;;
3769;SDS011;1900;48.890;9.190;2023-02-20T11:25:32;5.57;;;2.67;;
3769;SDS011;1900;48.890;9.190;2023-02-20T11:28:21;8.40;;;3.10;;
3769;SDS011;1900;48.890;9.190;2023-02-20T11:31:01;4.83;;;2.30;;
3769;SDS011;1900;48.890;9.190;2023-02-20T11:33:29;7.33;;;3.03;;
3769;SDS011;1900;48.890;9.190;2023-02-20T11:36:08;3.03;;;2.30;;
3769;SDS011;1900;48.890;9.190;2023-02-20T11:38:38;7.63;;;2.47;;
3769;SDS011;1900;48.890;9.190;2023-02-20T11:41:12;12.10;;;2.73;;
3769;SDS011;1900;48.890;9.190;2023-02-20T11:44:03;9.77;;;3.00;;
3769;SDS011;1900;48.890;9.190;2023-02-20T11:46:38;7.00;;;2.40;;
3769;SDS011;1900;48.890;9.190;2023-02-20T11:49:21;6.77;;;2.67;;
3769;SDS011;1900;48.890;9.190;2023-02-20T11:51:52;11.07;;;2.73;;
3769;SDS011;1900;48.890;9.190;2023-02-20T11:54:41;4.10;;;1.93;;
3769;SDS011;1900;48.890;9.190;2023-02-20T11:57:24;5.50;;;2.30;;
3769;SDS011;1900;48.890;9.190;2023-02-20T12:00:09;3.90;;;2.40;;
3769;SDS011;1900;48.890;9.190;2023-02-20T12:02:54;3.17;;;2.10;;
3769;SDS011;1900;48.890;9.190;2023-02-20T12:05:38;5.23;;;1.80;;
3769;SDS011;1900;48.890;9.190;2023-02-20T12:10:53;5.30;;;2.07;;
3769;SDS011;1900;48.890;9.190;2023-02-20T12:13:25;7.93;;;1.83;;
3769;SDS011;1900;48.890;9.190;2023-02-20T12:15:57;5.63;;;1.87;;
3769;SDS011;1900;48.890;9.190;2023-02-20T12:18:39;3.37;;;2.17;;
3769;SDS011;1900;48.890;9.190;2023-02-20T12:21:13;5.47;;;2.20;;
3769;SDS011;1900;48.890;9.190;2023-02-20T12:26:41;7.07;;;2.03;;
3769;SDS011;1900;48.890;9.190;2023-02-20T12:42:46;10.67;;;2.80;;
3769;SDS011;1900;48.890;9.190;2023-02-20T12:45:24;6.73;;;1.87;;
3769;SDS011;1900;48.890;9.190;2023-02-20T12:48:07;9.30;;;2.67;;
3769;SDS011;1900;48.890;9.190;2023-02-20T13:02:14;7.03;;;2.17;;
3769;SDS011;1900;48.890;9.190;2023-02-20T13:04:47;2.97;;;1.80;;
3769;SDS011;1900;48.890;9.190;2023-02-20T13:07:25;9.27;;;2.70;;
3769;SDS011;1900;48.890;9.190;2023-02-20T13:12:49;7.87;;;1.73;;
3769;SDS011;1900;48.890;9.190;2023-02-20T13:18:02;7.00;;;2.00;;
3769;SDS011;1900;48.890;9.190;2023-02-20T13:20:31;4.10;;;2.10;;
3769;SDS011;1900;48.890;9.190;2023-02-20T13:30:37;7.43;;;1.80;;
3769;SDS011;1900;48.890;9.190;2023-02-20T13:33:18;5.90;;;2.50;;
3769;SDS011;1900;48.890;9.190;2023-02-20T13:35:49;4.43;;;2.50;;
3769;SDS011;1900;48.890;9.190;2023-02-20T13:38:20;3.30;;;2.13;;
3769;SDS011;1900;48.890;9.190;2023-02-20T13:53:53;5.83;;;2.17;;
3769;SDS011;1900;48.890;9.190;2023-02-20T13:56:50;6.17;;;2.10;;
3769;SDS011;1900;48.890;9.190;2023-02-20T13:59:23;7.20;;;2.47;;
3769;SDS011;1900;48.890;9.190;2023-02-20T14:01:54;2.70;;;1.50;;
3769;SDS011;1900;48.890;9.190;2023-02-20T14:04:21;2.33;;;1.43;;
3769;SDS011;1900;48.890;9.190;2023-02-20T14:06:48;3.53;;;2.23;;
3769;SDS011;1900;48.890;9.190;2023-02-20T14:09:17;5.17;;;2.00;;
3769;SDS011;1900;48.890;9.190;2023-02-20T14:11:47;3.87;;;1.20;;
3769;SDS011;1900;48.890;9.190;2023-02-20T14:14:27;3.60;;;1.80;;
3769;SDS011;1900;48.890;9.190;2023-02-20T14:17:05;4.90;;;1.77;;
3769;SDS011;1900;48.890;9.190;2023-02-20T14:19:43;3.47;;;2.43;;
3769;SDS011;1900;48.890;9.190;2023-02-20T14:27:45;3.63;;;1.80;;
3769;SDS011;1900;48.890;9.190;2023-02-20T14:32:40;3.70;;;1.80;;
3769;SDS011;1900;48.890;9.190;2023-02-20T14:40:33;3.33;;;1.70;;
3769;SDS011;1900;48.890;9.190;2023-02-20T14:43:07;2.40;;;1.60;;
3769;SDS011;1900;48.890;9.190;2023-02-20T14:45:44;4.27;;;1.90;;
3769;SDS011;1900;48.890;9.190;2023-02-20T14:48:25;4.53;;;1.83;;
3769;SDS011;1900;48.890;9.190;2023-02-20T14:51:03;3.00;;;1.70;;
3769;SDS011;1900;48.890;9.190;2023-02-20T14:53:33;4.93;;;2.03;;
3769;SDS011;1900;48.890;9.190;2023-02-20T14:58:41;8.83;;;1.83;;
3769;SDS011;1900;48.890;9.190;2023-02-20T15:03:39;3.30;;;2.10;;
3769;SDS011;1900;48.890;9.190;2023-02-20T15:06:05;2.67;;;1.80;;
3769;SDS011;1900;48.890;9.190;2023-02-20T15:08:37;5.13;;;2.23;;
3769;SDS011;1900;48.890;9.190;2023-02-20T15:11:06;6.80;;;1.80;;
3769;SDS011;1900;48.890;9.190;2023-02-20T15:13:39;4.00;;;1.80;;
3769;SDS011;1900;48.890;9.190;2023-02-20T15:18:42;3.90;;;1.77;;
3769;SDS011;1900;48.890;9.190;2023-02-20T15:21:10;10.53;;;2.50;;
3769;SDS011;1900;48.890;9.190;2023-02-20T15:23:38;5.53;;;2.60;;
3769;SDS011;1900;48.890;9.190;2023-02-20T15:26:39;4.50;;;2.73;;
3769;SDS011;1900;48.890;9.190;2023-02-20T15:29:17;6.00;;;2.33;;
3769;SDS011;1900;48.890;9.190;2023-02-20T15:34:23;5.40;;;3.50;;
3769;SDS011;1900;48.890;9.190;2023-02-20T15:36:50;7.77;;;3.40;;
3769;SDS011;1900;48.890;9.190;2023-02-20T15:39:16;15.33;;;5.20;;
3769;SDS011;1900;48.890;9.190;2023-02-20T15:41:43;7.50;;;4.00;;
3769;SDS011;1900;48.890;9.190;2023-02-20T15:44:09;5.20;;;2.33;;
3769;SDS011;1900;48.890;9.190;2023-02-20T15:46:35;4.47;;;2.33;;
3769;SDS011;1900;48.890;9.190;2023-02-20T15:49:02;3.83;;;1.83;;
3769;SDS011;1900;48.890;9.190;2023-02-20T15:51:28;2.57;;;1.93;;
3769;SDS011;1900;48.890;9.190;2023-02-20T15:53:57;5.60;;;1.90;;
3769;SDS011;1900;48.890;9.190;2023-02-20T15:56:25;6.63;;;1.80;;
3769;SDS011;1900;48.890;9.190;2023-02-20T15:58:56;7.67;;;1.93;;
3769;SDS011;1900;48.890;9.190;2023-02-20T16:01:26;4.97;;;1.97;;
3769;SDS011;1900;48.890;9.190;2023-02-20T16:03:52;4.47;;;2.20;;
3769;SDS011;1900;48.890;9.190;2023-02-20T16:06:18;4.23;;;2.10;;
3769;SDS011;1900;48.890;9.190;2023-02-20T16:08:45;7.60;;;2.80;;
3769;SDS011;1900;48.890;9.190;2023-02-20T16:11:10;5.13;;;2.27;;
3769;SDS011;1900;48.890;9.190;2023-02-20T16:13:37;6.97;;;2.37;;
3769;SDS011;1900;48.890;9.190;2023-02-20T16:16:28;5.20;;;1.90;;
3769;SDS011;1900;48.890;9.190;2023-02-20T16:18:54;3.27;;;2.33;;
3769;SDS011;1900;48.890;9.190;2023-02-20T16:21:20;7.47;;;2.37;;
3769;SDS011;1900;48.890;9.190;2023-02-20T16:23:47;4.87;;;2.97;;
3769;SDS011;1900;48.890;9.190;2023-02-20T16:26:17;5.03;;;1.97;;
3769;SDS011;1900;48.890;9.190;2023-02-20T16:28:46;3.70;;;1.97;;
3769;SDS011;1900;48.890;9.190;2023-02-20T16:34:22;2.80;;;1.90;;
3769;SDS011;1900;48.890;9.190;2023-02-20T16:36:50;4.07;;;2.07;;
3769;SDS011;1900;48.890;9.190;2023-02-20T16:39:16;2.83;;;2.30;;
3769;SDS011;1900;48.890;9.190;2023-02-20T16:41:42;8.47;;;2.77;;
3769;SDS011;1900;48.890;9.190;2023-02-20T16:44:12;7.83;;;3.30;;
3769;SDS011;1900;48.890;9.190;2023-02-20T16:46:39;4.60;;;2.30;;
3769;SDS011;1900;48.890;9.190;2023-02-20T16:49:05;3.23;;;2.40;;
3769;SDS011;1900;48.890;9.190;2023-02-20T16:51:31;5.43;;;2.47;;
3769;SDS011;1900;48.890;9.190;2023-02-20T16:53:56;4.63;;;2.20;;
3769;SDS011;1900;48.890;9.190;2023-02-20T16:56:22;7.63;;;2.60;;
3769;SDS011;1900;48.890;9.190;2023-02-20T16:58:48;4.03;;;2.30;;
3769;SDS011;1900;48.890;9.190;2023-02-20T17:01:13;3.63;;;2.40;;
3769;SDS011;1900;48.890;9.190;2023-02-20T17:03:39;4.07;;;1.90;;
3769;SDS011;1900;48.890;9.190;2023-02-20T17:06:05;2.90;;;2.10;;
3769;SDS011;1900;48.890;9.190;2023-02-20T17:08:31;3.57;;;1.87;;
3769;SDS011;1900;48.890;9.190;2023-02-20T17:10:56;12.97;;;3.40;;
3769;SDS011;1900;48.890;9.190;2023-02-20T17:13:22;6.67;;;3.03;;
3769;SDS011;1900;48.890;9.190;2023-02-20T17:15:48;8.97;;;3.33;;
3769;SDS011;1900;48.890;9.190;2023-02-20T17:18:13;13.47;;;6.10;;
3769;SDS011;1900;48.890;9.190;2023-02-20T17:20:39;16.57;;;8.03;;
3769;SDS011;1900;48.890;9.190;2023-02-20T17:23:05;21.60;;;8.50;;
3769;SDS011;1900;48.890;9.190;2023-02-20T17:25:31;23.63;;;12.17;;
3769;SDS011;1900;48.890;9.190;2023-02-20T17:27:59;25.70;;;13.70;;
3769;SDS011;1900;48.890;9.190;2023-02-20T17:30:25;33.17;;;13.30;;
3769;SDS011;1900;48.890;9.190;2023-02-20T17:32:50;22.40;;;12.00;;
3769;SDS011;1900;48.890;9.190;2023-02-20T17:35:16;20.57;;;10.70;;
3769;SDS011;1900;48.890;9.190;2023-02-20T17:37:42;31.47;;;11.40;;
3769;SDS011;1900;48.890;9.190;2023-02-20T17:40:08;16.50;;;7.63;;
3769;SDS011;1900;48.890;9.190;2023-02-20T17:42:35;12.63;;;6.30;;
3769;SDS011;1900;48.890;9.190;2023-02-20T17:45:01;9.03;;;4.50;;
3769;SDS011;1900;48.890;9.190;2023-02-20T17:47:27;8.70;;;3.93;;
3769;SDS011;1900;48.890;9.190;2023-02-20T17:49:54;7.07;;;4.13;;
3769;SDS011;1900;48.890;9.190;2023-02-20T17:52:21;8.67;;;3.90;;
3769;SDS011;1900;48.890;9.190;2023-02-20T17:54:48;3.53;;;2.80;;
3769;SDS011;1900;48.890;9.190;2023-02-20T17:57:16;7.27;;;3.43;;
3769;SDS011;1900;48.890;9.190;2023-02-20T17:59:43;7.27;;;2.90;;